Terminal Aerodrome Forecast
Issued by NWS

Home | Current Version | Previous Version | Text Only | Print | Product List | Glossary On
Versions: 1 2 3 4 5 6 7 8 9 10 11 12 13 14 15 16 17 18 19 20 21 22 23 24 25 26 27 28
000
FTAK31 PAFA 211736
TAFAMC
TAF
PAMC 211736Z 2118/2218 VRB03KT P6SM SKC
     FM220200 33003KT P6SM FEW050 BKN100 OVC200
     FM220500 33003KT 5SM -SN BR SCT025 BKN050 OVC100
     FM220900 14003KT 1 1/2SM -SN BR OVC015=

USA.gov is the U.S. government's official web portal to all federal, state and local government web resources and services.